Time;durP1;ratioP1;P1;durP2;ratioP2;P2;SDS_P1;SDS_P2;PMS_P1;PMS_P2;Temp;Humidity;BMP_temperature;BMP_pressure;BME280_temperature;BME280_humidity;BME280_pressure;Samples;Min_cycle;Max_cycle;Signal;HPM_P1;HPM_P2
2022/07/29 00:00:01;;;;;;;1.38;1.27;;;22.40;68.90;;;;;;5054143;28;20064;-56
2022/07/29 00:02:28;;;;;;;1.10;1.10;;;22.40;69.00;;;;;;5051171;28;20067;-56
2022/07/29 00:04:53;;;;;;;2.13;1.60;;;22.40;69.30;;;;;;5060998;28;20033;-55
2022/07/29 00:07:19;;;;;;;1.67;1.58;;;22.30;69.50;;;;;;5056280;28;20447;-55
2022/07/29 00:09:45;;;;;;;1.77;1.50;;;22.30;69.80;;;;;;5053457;28;20103;-56
2022/07/29 00:12:11;;;;;;;1.95;1.85;;;22.30;70.10;;;;;;5049386;28;20021;-56
2022/07/29 00:14:37;;;;;;;1.75;1.65;;;22.30;70.30;;;;;;5044410;28;20124;-56
2022/07/29 00:17:03;;;;;;;1.92;1.73;;;22.20;70.40;;;;;;5060926;28;20044;-55
2022/07/29 00:19:29;;;;;;;1.67;1.58;;;22.20;70.60;;;;;;5057113;28;20487;-56
2022/07/29 00:21:54;;;;;;;1.75;1.65;;;22.20;70.80;;;;;;5057563;28;20048;-56
2022/07/29 00:24:20;;;;;;;2.17;1.85;;;22.10;71.10;;;;;;5054841;28;20392;-55
2022/07/29 00:26:46;;;;;;;1.85;1.75;;;22.10;71.20;;;;;;5064200;28;20040;-56
2022/07/29 00:29:11;;;;;;;1.80;1.70;;;22.10;71.30;;;;;;5058852;28;20033;-56
2022/07/29 00:31:37;;;;;;;1.65;1.55;;;22.10;71.30;;;;;;5060657;28;20020;-55
2022/07/29 00:34:03;;;;;;;2.00;1.77;;;22.10;71.50;;;;;;5058446;28;20096;-56
2022/07/29 00:36:29;;;;;;;2.03;1.70;;;22.10;71.50;;;;;;5055657;28;20025;-56
2022/07/29 00:38:54;;;;;;;1.90;1.80;;;22.10;71.30;;;;;;5049396;28;20539;-56
2022/07/29 00:41:20;;;;;;;2.70;2.03;;;22.10;71.50;;;;;;5054738;28;20063;-56
2022/07/29 00:43:46;;;;;;;1.95;1.83;;;22.00;71.70;;;;;;5055285;28;20047;-56
2022/07/29 00:46:12;;;;;;;2.03;1.83;;;22.10;72.20;;;;;;5053123;28;20568;-56
2022/07/29 00:48:38;;;;;;;2.00;1.80;;;22.00;72.10;;;;;;5054277;28;20115;-55
2022/07/29 00:51:05;;;;;;;2.17;1.50;;;22.00;72.20;;;;;;5059592;28;20022;-56
2022/07/29 00:53:31;;;;;;;1.92;1.80;;;22.00;72.40;;;;;;5060047;28;20029;-56
2022/07/29 00:55:58;;;;;;;1.75;1.63;;;22.00;72.30;;;;;;5060403;28;20025;-56
2022/07/29 00:58:26;;;;;;;2.33;1.90;;;21.90;72.30;;;;;;5054087;28;20028;-56
2022/07/29 01:00:52;;;;;;;1.80;1.70;;;21.90;72.30;;;;;;5053007;28;20075;-56
2022/07/29 01:03:18;;;;;;;1.80;1.70;;;21.80;72.40;;;;;;5054963;28;20430;-56
2022/07/29 01:05:45;;;;;;;1.88;1.77;;;21.80;72.40;;;;;;5066283;28;20028;-56
2022/07/29 01:08:13;;;;;;;2.30;2.10;;;21.80;72.50;;;;;;5055024;28;20545;-56
2022/07/29 01:10:40;;;;;;;2.20;2.00;;;21.70;72.60;;;;;;5050884;28;20082;-56
2022/07/29 01:13:07;;;;;;;1.60;1.50;;;21.70;72.70;;;;;;5053294;28;20025;-56
2022/07/29 01:15:36;;;;;;;1.77;1.65;;;21.70;73.60;;;;;;5065951;28;20044;-56
2022/07/29 01:18:22;;;;;;;1.83;1.63;;;21.70;73.00;;;;;;5052005;28;20041;-56
2022/07/29 01:21:04;;;;;;;1.52;1.42;;;21.70;73.00;;;;;;5051169;28;20032;-55
2022/07/29 01:23:48;;;;;;;1.50;1.40;;;21.60;72.50;;;;;;5055736;28;20029;-56
2022/07/29 01:26:26;;;;;;;1.60;1.50;;;21.60;71.90;;;;;;5061521;28;20078;-56
2022/07/29 01:29:19;;;;;;;1.00;1.00;;;21.60;71.40;;;;;;5053569;28;20059;-56
2022/07/29 01:32:08;;;;;;;1.23;1.20;;;21.60;70.70;;;;;;5051564;28;20021;-57
2022/07/29 01:34:54;;;;;;;1.50;1.40;;;21.60;70.40;;;;;;5052533;28;20082;-56
2022/07/29 01:37:29;;;;;;;1.40;1.27;;;21.60;70.10;;;;;;5053447;28;20045;-56
2022/07/29 01:39:57;;;;;;;1.67;1.50;;;21.60;70.00;;;;;;5052676;28;20387;-56
2022/07/29 01:42:47;;;;;;;1.60;1.50;;;21.60;70.00;;;;;;5053246;28;20028;-56
2022/07/29 01:45:22;;;;;;;1.40;1.30;;;21.60;69.70;;;;;;5054298;28;20037;-56
2022/07/29 01:48:10;;;;;;;1.58;1.40;;;21.60;69.70;;;;;;5052661;28;20380;-56
2022/07/29 01:50:47;;;;;;;1.95;1.55;;;21.60;69.60;;;;;;5060599;28;20104;-56
2022/07/29 01:53:21;;;;;;;1.17;1.13;;;21.60;69.60;;;;;;5058106;28;20059;-57
2022/07/29 01:55:49;;;;;;;1.17;1.17;;;21.60;69.70;;;;;;5047487;28;20028;-56
2022/07/29 01:58:18;;;;;;;1.02;1.02;;;21.60;69.60;;;;;;5052513;28;20107;-56
2022/07/29 02:00:46;;;;;;;2.08;1.40;;;21.60;69.70;;;;;;5065063;28;20028;-56
2022/07/29 02:03:14;;;;;;;1.50;1.40;;;21.60;69.50;;;;;;5057935;28;20392;-56
2022/07/29 02:05:42;;;;;;;2.35;1.60;;;21.60;69.60;;;;;;5050324;28;20032;-56
2022/07/29 02:08:09;;;;;;;1.27;1.23;;;21.60;69.60;;;;;;5052215;28;20040;-56
2022/07/29 02:10:37;;;;;;;1.52;1.40;;;21.60;69.50;;;;;;5052708;28;20025;-56
2022/07/29 02:13:03;;;;;;;1.63;1.08;;;21.50;69.50;;;;;;5051748;28;21252;-56
2022/07/29 02:15:32;;;;;;;1.27;1.23;;;21.50;69.50;;;;;;5063618;28;20549;-56
2022/07/29 02:18:20;;;;;;;2.03;1.65;;;21.50;69.50;;;;;;5056600;28;20037;-56
2022/07/29 02:20:48;;;;;;;2.63;1.10;;;21.60;69.50;;;;;;5044518;28;20029;-56
2022/07/29 02:23:19;;;;;;;2.90;1.35;;;21.60;69.70;;;;;;5050724;28;20392;-56
2022/07/29 02:25:51;;;;;;;2.53;1.80;;;21.60;69.70;;;;;;5061528;28;20037;-56
2022/07/29 02:28:18;;;;;;;2.08;1.58;;;21.60;69.70;;;;;;5052560;28;20037;-56
2022/07/29 02:30:45;;;;;;;3.33;1.65;;;21.60;69.30;;;;;;5053841;28;20024;-56
2022/07/29 02:33:14;;;;;;;1.60;1.50;;;21.60;69.20;;;;;;5053518;28;20624;-56
2022/07/29 02:35:41;;;;;;;1.30;1.30;;;21.60;69.00;;;;;;5044930;28;20029;-56
2022/07/29 02:40:58;;;;;;;2.53;1.70;;;21.60;69.00;;;;;;5046937;28;20036;-56
2022/07/29 02:43:25;;;;;;;1.48;1.38;;;21.70;68.80;;;;;;5051173;28;20035;-56
2022/07/29 02:45:54;;;;;;;2.10;1.70;;;21.70;68.60;;;;;;5053167;28;20495;-56
2022/07/29 02:48:25;;;;;;;1.50;1.40;;;21.60;68.50;;;;;;5050981;28;20376;-56
2022/07/29 02:50:59;;;;;;;2.65;2.20;;;21.60;68.50;;;;;;5061802;28;20482;-56
2022/07/29 02:53:29;;;;;;;1.38;1.27;;;21.70;68.50;;;;;;5055123;28;20711;-57
2022/07/29 02:55:58;;;;;;;1.83;1.65;;;21.70;68.60;;;;;;5051846;28;20029;-56
2022/07/29 02:58:46;;;;;;;1.48;1.38;;;21.70;68.50;;;;;;5050704;28;20035;-55
2022/07/29 03:01:16;;;;;;;1.00;1.00;;;21.70;68.60;;;;;;5051184;28;20475;-54
2022/07/29 03:03:45;;;;;;;2.15;1.63;;;21.70;68.90;;;;;;5046706;28;20367;-56
2022/07/29 03:06:13;;;;;;;1.90;1.80;;;21.70;68.80;;;;;;5057131;28;20110;-56
2022/07/29 03:08:39;;;;;;;1.60;1.50;;;21.70;68.60;;;;;;5044085;28;20033;-55
2022/07/29 03:11:07;;;;;;;1.55;1.45;;;21.80;68.70;;;;;;5049629;28;20454;-56
2022/07/29 03:13:33;;;;;;;2.15;1.85;;;21.80;68.70;;;;;;5053726;28;20028;-56
2022/07/29 03:15:59;;;;;;;2.05;1.27;;;21.90;68.50;;;;;;5064232;28;20479;-56
2022/07/29 03:18:26;;;;;;;2.80;1.88;;;21.90;68.40;;;;;;5047696;28;20052;-56
2022/07/29 03:20:51;;;;;;;2.10;1.75;;;22.00;68.50;;;;;;5052932;28;20021;-56
2022/07/29 03:23:23;;;;;;;1.85;1.73;;;22.10;68.30;;;;;;5051587;28;20488;-56
2022/07/29 03:25:52;;;;;;;1.95;1.52;;;22.20;68.40;;;;;;5062351;28;20052;-56
2022/07/29 03:28:19;;;;;;;1.63;1.52;;;22.30;68.30;;;;;;5053183;28;20029;-56
2022/07/29 03:30:44;;;;;;;1.30;1.20;;;22.40;68.20;;;;;;5053485;28;20024;-56
2022/07/29 03:33:10;;;;;;;3.70;1.40;;;22.50;68.20;;;;;;5052707;28;20487;-56
2022/07/29 03:35:36;;;;;;;2.28;1.83;;;22.60;68.20;;;;;;5054352;28;20506;-55
2022/07/29 03:38:01;;;;;;;1.50;1.40;;;22.80;68.30;;;;;;5052706;28;20036;-56
2022/07/29 03:40:53;;;;;;;1.92;1.60;;;22.90;68.40;;;;;;5054943;28;20112;-56
2022/07/29 03:43:20;;;;;;;1.48;1.38;;;23.10;68.30;;;;;;5053871;28;20392;-56
2022/07/29 03:45:50;;;;;;;2.05;1.48;;;23.30;69.20;;;;;;5051473;28;20035;-56
2022/07/29 03:48:19;;;;;;;1.73;1.38;;;23.50;69.10;;;;;;5050074;28;20021;-56
2022/07/29 03:50:45;;;;;;;2.05;1.85;;;23.70;69.30;;;;;;5053626;28;20028;-56
2022/07/29 03:53:12;;;;;;;1.70;1.60;;;24.00;69.40;;;;;;5058158;28;20025;-56
2022/07/29 03:55:42;;;;;;;1.73;1.23;;;24.30;69.20;;;;;;5045436;28;20020;-56
2022/07/29 03:58:10;;;;;;;1.58;1.48;;;24.70;68.90;;;;;;5051487;28;20080;-55
2022/07/29 04:00:37;;;;;;;1.27;1.17;;;25.10;68.60;;;;;;5060554;28;20049;-54
2022/07/29 04:03:04;;;;;;;1.55;1.40;;;25.70;68.20;;;;;;5056649;28;20033;-55
2022/07/29 04:05:30;;;;;;;1.10;0.95;;;26.40;67.30;;;;;;5058711;28;20083;-54
2022/07/29 04:07:56;;;;;;;1.10;1.00;;;27.20;66.00;;;;;;5046281;28;20029;-55
2022/07/29 04:10:25;;;;;;;1.38;1.08;;;28.10;64.20;;;;;;5055397;28;20055;-54
2022/07/29 04:12:51;;;;;;;1.23;1.10;;;29.00;62.20;;;;;;5053145;28;20025;-53
2022/07/29 04:15:16;;;;;;;1.08;1.00;;;29.90;60.80;;;;;;5061415;28;20021;-54
2022/07/29 04:17:42;;;;;;;1.05;1.05;;;30.80;59.40;;;;;;5057298;28;20048;-55
2022/07/29 04:20:09;;;;;;;1.30;1.20;;;31.60;57.80;;;;;;5055741;28;20441;-55
2022/07/29 04:22:34;;;;;;;1.45;1.25;;;32.30;56.30;;;;;;5053967;28;20502;-55
2022/07/29 04:25:00;;;;;;;1.10;1.00;;;32.90;55.50;;;;;;5058377;28;20029;-55
2022/07/29 04:27:26;;;;;;;1.33;1.10;;;33.60;54.60;;;;;;5060896;28;20044;-55
2022/07/29 04:29:51;;;;;;;1.23;1.13;;;34.10;53.50;;;;;;5059368;28;20016;-55
2022/07/29 04:32:17;;;;;;;1.65;1.30;;;34.70;52.60;;;;;;5055673;28;20375;-56
2022/07/29 04:34:43;;;;;;;0.98;0.88;;;35.20;51.80;;;;;;5054874;28;20024;-55
2022/07/29 04:37:08;;;;;;;1.73;1.08;;;35.70;51.10;;;;;;5057318;28;20130;-55
2022/07/29 04:39:34;;;;;;;1.38;1.27;;;36.20;50.30;;;;;;5054487;28;20036;-55
2022/07/29 04:41:59;;;;;;;1.00;1.00;;;36.50;49.70;;;;;;5060088;28;20147;-56
2022/07/29 04:44:26;;;;;;;0.77;0.70;;;36.80;49.30;;;;;;5054914;28;20112;-55
2022/07/29 04:46:52;;;;;;;0.73;0.73;;;37.20;48.90;;;;;;5052773;28;20092;-55
2022/07/29 04:49:17;;;;;;;0.70;0.70;;;37.60;48.40;;;;;;5053234;28;20051;-55
2022/07/29 04:51:43;;;;;;;1.00;0.88;;;37.90;47.80;;;;;;5068706;28;20013;-54
2022/07/29 04:54:08;;;;;;;1.25;1.15;;;38.10;47.30;;;;;;5057242;28;20033;-55
2022/07/29 04:56:34;;;;;;;0.73;0.73;;;38.30;46.70;;;;;;5052473;28;20434;-55
2022/07/29 04:59:00;;;;;;;0.68;0.68;;;38.50;46.50;;;;;;5046248;28;20507;-56
2022/07/29 05:01:25;;;;;;;0.80;0.80;;;38.70;46.20;;;;;;5060869;28;20031;-55
2022/07/29 05:03:51;;;;;;;0.60;0.60;;;38.90;45.90;;;;;;5061186;28;20024;-55
2022/07/29 05:06:17;;;;;;;0.75;0.75;;;39.10;45.80;;;;;;5052936;28;20028;-55
2022/07/29 05:08:42;;;;;;;1.05;0.93;;;39.40;45.60;;;;;;5054074;28;20025;-55
2022/07/29 05:11:08;;;;;;;1.13;1.00;;;39.70;45.20;;;;;;5053742;28;20468;-55
2022/07/29 05:13:34;;;;;;;1.10;1.00;;;39.90;44.90;;;;;;5055999;28;20016;-55
2022/07/29 05:15:59;;;;;;;0.88;0.88;;;40.00;44.60;;;;;;5062992;28;20028;-56
2022/07/29 05:18:25;;;;;;;0.98;0.98;;;40.00;44.30;;;;;;5058188;28;20045;-56
2022/07/29 05:20:51;;;;;;;1.40;0.60;;;40.10;44.10;;;;;;5056221;28;20090;-54
2022/07/29 05:23:17;;;;;;;1.17;1.05;;;40.10;44.00;;;;;;5052447;28;20488;-55
2022/07/29 05:25:43;;;;;;;1.17;1.08;;;39.90;43.50;;;;;;5068117;28;20043;-55
2022/07/29 05:28:08;;;;;;;1.08;0.75;;;39.70;43.60;;;;;;5060656;28;20487;-55
2022/07/29 05:30:34;;;;;;;0.95;0.90;;;39.50;43.40;;;;;;5056808;28;20029;-56
2022/07/29 05:33:00;;;;;;;0.65;0.47;;;39.40;43.00;;;;;;5047614;28;20036;-56
2022/07/29 05:35:25;;;;;;;1.20;0.73;;;39.20;42.80;;;;;;5045381;28;20028;-56
2022/07/29 05:37:51;;;;;;;0.80;0.80;;;38.80;42.60;;;;;;5052747;28;20108;-55
2022/07/29 05:40:17;;;;;;;0.70;0.70;;;38.20;43.00;;;;;;5052150;28;20577;-56
2022/07/29 05:42:42;;;;;;;0.85;0.85;;;37.30;43.30;;;;;;5052135;28;20036;-55
2022/07/29 05:45:08;;;;;;;0.80;0.80;;;36.50;43.90;;;;;;5037958;28;20029;-56
2022/07/29 05:47:34;;;;;;;0.90;0.90;;;35.70;44.30;;;;;;5045643;28;20119;-55
2022/07/29 05:50:00;;;;;;;0.88;0.73;;;35.00;45.00;;;;;;5048051;28;20108;-56
2022/07/29 05:52:26;;;;;;;1.15;1.10;;;34.30;45.40;;;;;;5039658;28;20021;-55
2022/07/29 05:54:51;;;;;;;1.00;0.90;;;33.70;45.80;;;;;;5034942;28;22619;-54
2022/07/29 05:57:22;;;;;;;0.85;0.85;;;33.20;46.30;;;;;;5038748;28;20037;-57
2022/07/29 05:59:49;;;;;;;2.63;1.40;;;32.70;46.70;;;;;;5034709;28;20039;-58
2022/07/29 06:02:16;;;;;;;0.90;0.90;;;32.20;47.10;;;;;;5033977;28;20063;-57
2022/07/29 06:04:41;;;;;;;0.80;0.80;;;31.70;47.60;;;;;;5036298;28;20028;-56
2022/07/29 06:07:07;;;;;;;1.25;1.15;;;31.30;48.10;;;;;;5040007;28;20357;-56
2022/07/29 06:09:33;;;;;;;1.20;1.10;;;30.90;48.50;;;;;;5030238;28;20509;-56
2022/07/29 06:11:59;;;;;;;2.30;1.00;;;30.70;48.90;;;;;;5030895;28;20024;-60
2022/07/29 06:14:26;;;;;;;1.35;1.10;;;30.40;49.10;;;;;;5043570;28;20040;-58
2022/07/29 06:16:52;;;;;;;1.80;0.90;;;30.20;49.30;;;;;;5040543;28;20123;-57
2022/07/29 06:19:18;;;;;;;1.30;0.93;;;30.00;49.40;;;;;;5037062;28;20070;-55
2022/07/29 06:21:45;;;;;;;1.10;1.00;;;29.70;49.70;;;;;;5032998;28;20028;-55
2022/07/29 06:24:12;;;;;;;1.48;1.05;;;29.50;50.10;;;;;;5035265;28;20090;-54
2022/07/29 06:26:39;;;;;;;1.50;1.05;;;29.30;50.40;;;;;;5029920;28;20387;-55
2022/07/29 06:29:04;;;;;;;1.77;1.25;;;29.20;50.60;;;;;;5032818;28;20033;-54
2022/07/29 06:31:30;;;;;;;1.13;1.02;;;29.00;50.80;;;;;;5037554;28;20048;-55
2022/07/29 06:33:56;;;;;;;1.65;1.33;;;28.90;51.00;;;;;;5031602;28;21078;-55
2022/07/29 06:36:21;;;;;;;1.35;1.25;;;28.80;51.40;;;;;;5032841;28;20036;-55
2022/07/29 06:38:47;;;;;;;0.98;0.98;;;28.70;51.60;;;;;;5024629;28;20083;-54
2022/07/29 06:41:15;;;;;;;1.30;1.13;;;28.60;51.60;;;;;;5033177;28;21355;-55
2022/07/29 06:43:42;;;;;;;1.55;1.08;;;28.50;51.80;;;;;;5032574;28;20119;-55
2022/07/29 06:46:15;;;;;;;1.40;1.30;;;28.40;52.10;;;;;;5036310;28;20032;-55
2022/07/29 06:48:42;;;;;;;1.23;0.98;;;28.30;52.20;;;;;;5029411;28;20045;-55
2022/07/29 06:51:08;;;;;;;0.75;0.75;;;28.30;52.40;;;;;;5034401;28;20388;-54
2022/07/29 06:53:35;;;;;;;1.38;1.27;;;28.20;52.50;;;;;;5031503;28;20478;-55
2022/07/29 06:56:03;;;;;;;1.33;1.27;;;28.10;52.60;;;;;;5026515;28;20037;-55
2022/07/29 06:58:30;;;;;;;1.50;1.10;;;28.10;52.70;;;;;;5033774;28;20032;-53
2022/07/29 07:00:57;;;;;;;1.63;1.20;;;28.00;52.90;;;;;;5045324;28;20037;-56
2022/07/29 07:03:23;;;;;;;1.48;1.05;;;27.90;53.10;;;;;;5025182;28;20170;-56
2022/07/29 07:05:49;;;;;;;1.33;1.23;;;27.80;53.20;;;;;;5029594;28;20025;-55
2022/07/29 07:08:15;;;;;;;1.48;1.30;;;27.70;53.40;;;;;;5030755;28;20041;-56
2022/07/29 07:10:42;;;;;;;1.50;1.33;;;27.70;53.60;;;;;;5034487;28;20028;-55
2022/07/29 07:13:08;;;;;;;1.23;1.10;;;27.70;53.80;;;;;;5026908;28;20040;-56
2022/07/29 07:15:33;;;;;;;1.38;1.27;;;27.60;53.80;;;;;;5029958;28;23477;-55
2022/07/29 07:17:59;;;;;;;1.88;1.13;;;27.60;53.90;;;;;;5028750;28;20041;-55
2022/07/29 07:20:25;;;;;;;1.23;1.20;;;27.50;54.00;;;;;;5030769;28;20028;-55
2022/07/29 07:22:51;;;;;;;1.98;1.45;;;27.50;54.20;;;;;;5030530;28;20531;-56
2022/07/29 07:25:17;;;;;;;1.30;1.20;;;27.50;54.40;;;;;;5029271;28;20049;-54
2022/07/29 07:27:43;;;;;;;1.05;1.02;;;27.40;54.20;;;;;;5029431;28;20476;-56
2022/07/29 07:30:09;;;;;;;1.35;1.20;;;27.40;54.30;;;;;;5020525;28;20539;-55
2022/07/29 07:32:35;;;;;;;2.00;1.60;;;27.40;54.50;;;;;;5026728;28;20032;-52
2022/07/29 07:35:02;;;;;;;1.55;1.45;;;27.40;54.50;;;;;;5031098;28;20466;-54
2022/07/29 07:37:29;;;;;;;1.10;1.10;;;27.30;54.70;;;;;;5026329;28;20037;-55
2022/07/29 07:39:54;;;;;;;1.20;1.20;;;27.30;54.70;;;;;;5025915;28;20033;-55
2022/07/29 07:42:20;;;;;;;1.08;1.00;;;27.30;54.60;;;;;;5031738;28;20036;-55
2022/07/29 07:44:48;;;;;;;1.02;1.00;;;27.20;54.50;;;;;;5026890;28;20064;-57
2022/07/29 07:47:19;;;;;;;1.02;1.02;;;27.30;54.60;;;;;;5024214;28;20033;-56
2022/07/29 07:49:52;;;;;;;1.45;1.35;;;27.20;54.40;;;;;;5035189;28;20093;-54
2022/07/29 07:52:20;;;;;;;1.13;1.00;;;27.20;54.50;;;;;;5030564;28;20040;-55
2022/07/29 07:54:46;;;;;;;1.63;0.80;;;27.10;54.20;;;;;;5030980;28;20108;-56
2022/07/29 07:57:12;;;;;;;2.40;0.93;;;27.10;54.20;;;;;;5023690;28;20098;-55
2022/07/29 07:59:39;;;;;;;0.93;0.90;;;27.00;54.40;;;;;;5037292;28;20446;-56
2022/07/29 08:02:05;;;;;;;1.00;0.95;;;27.00;54.50;;;;;;5030103;28;20036;-55
2022/07/29 08:04:31;;;;;;;1.02;0.93;;;27.00;54.50;;;;;;5031645;28;20056;-56
2022/07/29 08:06:58;;;;;;;1.00;1.00;;;27.00;54.40;;;;;;5025657;28;20447;-56
2022/07/29 08:09:26;;;;;;;0.80;0.80;;;27.00;54.40;;;;;;5024125;28;20036;-56
2022/07/29 08:11:52;;;;;;;1.50;1.30;;;27.00;54.40;;;;;;5028784;28;20103;-54
2022/07/29 08:14:18;;;;;;;1.25;1.10;;;27.00;54.50;;;;;;5028072;28;20099;-55
2022/07/29 08:16:43;;;;;;;1.27;1.17;;;27.00;54.80;;;;;;5031398;28;20429;-55
2022/07/29 08:19:09;;;;;;;1.42;1.17;;;27.00;55.00;;;;;;5018608;28;21216;-55
2022/07/29 08:21:35;;;;;;;1.17;0.98;;;27.00;55.20;;;;;;5021296;28;20039;-55
2022/07/29 08:26:46;;;;;;;0.80;0.80;;;27.00;55.10;;;;;;5020075;28;20159;-56
2022/07/29 08:29:11;;;;;;;1.23;1.10;;;26.90;54.70;;;;;;5024128;28;20041;-55
2022/07/29 08:31:38;;;;;;;1.20;1.15;;;26.90;54.50;;;;;;5025381;28;20064;-56
2022/07/29 08:34:04;;;;;;;1.17;1.08;;;26.80;54.40;;;;;;5017707;28;20029;-55
2022/07/29 08:36:32;;;;;;;1.38;1.20;;;26.80;54.60;;;;;;5027819;28;20414;-55
2022/07/29 08:38:59;;;;;;;2.35;1.17;;;26.70;54.60;;;;;;5009968;28;20044;-54
2022/07/29 08:41:26;;;;;;;0.80;0.80;;;26.70;54.60;;;;;;5025018;28;20029;-55
2022/07/29 08:43:52;;;;;;;1.33;1.23;;;26.70;54.50;;;;;;5025970;28;20040;-56
2022/07/29 08:46:19;;;;;;;0.90;0.90;;;26.60;54.70;;;;;;5020876;28;20040;-55
2022/07/29 08:48:45;;;;;;;0.77;0.77;;;26.60;54.80;;;;;;5025038;28;20730;-54
2022/07/29 08:51:16;;;;;;;1.15;1.05;;;26.60;54.60;;;;;;5030722;28;20024;-55
2022/07/29 08:53:43;;;;;;;1.60;0.88;;;26.60;54.70;;;;;;5027223;28;20029;-53
2022/07/29 08:56:18;;;;;;;1.50;0.80;;;26.60;54.50;;;;;;5024015;28;20048;-55
2022/07/29 08:58:45;;;;;;;1.02;0.90;;;26.60;54.40;;;;;;5023246;28;20459;-56
2022/07/29 09:01:13;;;;;;;0.73;0.73;;;26.60;54.30;;;;;;5013990;28;21483;-56
2022/07/29 09:03:41;;;;;;;0.95;0.95;;;26.70;54.50;;;;;;5028443;28;20060;-52
2022/07/29 09:06:07;;;;;;;1.30;1.20;;;26.70;54.40;;;;;;5022707;28;20038;-55
2022/07/29 09:08:33;;;;;;;1.45;1.33;;;26.70;54.20;;;;;;5026596;28;20056;-55
2022/07/29 09:11:01;;;;;;;0.70;0.70;;;26.70;53.90;;;;;;5024689;28;20755;-56
2022/07/29 09:13:27;;;;;;;1.30;1.10;;;26.70;53.90;;;;;;5021401;28;20081;-54
2022/07/29 09:15:54;;;;;;;1.15;1.08;;;26.70;54.00;;;;;;5027996;28;20029;-55
2022/07/29 09:18:44;;;;;;;0.65;0.65;;;26.70;53.90;;;;;;5022157;28;20056;-55
2022/07/29 09:24:06;;;;;;;1.20;1.20;;;26.70;53.90;;;;;;5019395;28;20060;-56
2022/07/29 09:26:35;;;;;;;1.95;0.90;;;26.70;53.70;;;;;;5031786;28;20039;-56
2022/07/29 09:29:12;;;;;;;0.90;0.90;;;26.70;53.80;;;;;;5029150;28;20595;-55
2022/07/29 09:31:40;;;;;;;0.82;0.82;;;26.70;53.90;;;;;;5023984;28;21614;-54
2022/07/29 09:34:07;;;;;;;1.10;1.10;;;26.70;53.80;;;;;;5022070;28;20089;-56
2022/07/29 09:36:44;;;;;;;1.50;1.35;;;26.70;53.60;;;;;;5027069;28;20986;-55
2022/07/29 09:39:10;;;;;;;1.02;0.90;;;26.70;53.40;;;;;;5026830;28;20361;-56
2022/07/29 09:41:54;;;;;;;1.10;1.10;;;26.60;53.20;;;;;;5023237;28;20033;-56
2022/07/29 09:44:21;;;;;;;1.10;1.00;;;26.60;53.10;;;;;;5026849;28;20037;-57
2022/07/29 09:47:05;;;;;;;1.40;1.30;;;26.60;53.30;;;;;;5030059;28;20029;-54
2022/07/29 09:49:36;;;;;;;0.88;0.88;;;26.60;53.10;;;;;;5021596;28;20041;-55
2022/07/29 09:52:06;;;;;;;1.25;1.15;;;26.50;52.90;;;;;;5026009;28;20480;-55
2022/07/29 09:54:38;;;;;;;1.02;0.80;;;26.50;53.00;;;;;;5020495;28;20435;-56
2022/07/29 09:57:06;;;;;;;0.70;0.70;;;26.40;53.00;;;;;;5029774;28;20033;-55
2022/07/29 09:59:32;;;;;;;1.27;1.17;;;26.40;53.00;;;;;;5018709;28;20032;-55
2022/07/29 10:01:58;;;;;;;1.42;0.85;;;26.40;53.00;;;;;;5016760;28;20075;-56
2022/07/29 10:04:35;;;;;;;1.00;1.00;;;26.40;53.00;;;;;;5020220;28;20044;-56
2022/07/29 10:07:03;;;;;;;0.80;0.68;;;26.40;52.70;;;;;;5038939;28;23338;-57
2022/07/29 10:09:29;;;;;;;0.82;0.82;;;26.40;52.60;;;;;;5015368;28;20029;-56
2022/07/29 10:12:14;;;;;;;1.20;1.10;;;26.30;52.40;;;;;;5023057;28;20029;-55
2022/07/29 10:14:41;;;;;;;1.02;1.02;;;26.30;52.40;;;;;;5027952;28;20029;-55
2022/07/29 10:17:09;;;;;;;1.58;0.90;;;26.30;52.10;;;;;;5022908;28;20417;-54
2022/07/29 10:19:35;;;;;;;1.08;1.08;;;26.30;52.10;;;;;;5017565;28;20028;-56
2022/07/29 10:22:04;;;;;;;1.15;1.10;;;26.30;52.20;;;;;;5019325;28;20230;-56
2022/07/29 10:24:31;;;;;;;0.98;0.93;;;26.30;52.20;;;;;;5023825;28;20099;-53
2022/07/29 10:26:59;;;;;;;0.65;0.65;;;26.30;52.20;;;;;;5030190;28;20750;-53
2022/07/29 10:29:26;;;;;;;0.85;0.85;;;26.30;52.30;;;;;;5029353;28;20037;-54
2022/07/29 10:32:07;;;;;;;1.20;1.10;;;26.30;52.20;;;;;;5029926;28;20021;-56
2022/07/29 10:34:47;;;;;;;1.30;1.27;;;26.30;52.10;;;;;;5025147;28;20025;-54
2022/07/29 10:37:25;;;;;;;1.00;0.73;;;26.30;52.00;;;;;;5025754;28;20036;-56
2022/07/29 10:39:54;;;;;;;0.90;0.90;;;26.30;51.70;;;;;;5028795;28;20163;-55
2022/07/29 10:42:25;;;;;;;2.05;1.08;;;26.30;51.80;;;;;;5029307;28;20044;-54
2022/07/29 10:44:53;;;;;;;0.93;0.93;;;26.20;51.80;;;;;;5029767;28;20064;-55
2022/07/29 10:47:26;;;;;;;1.38;1.00;;;26.20;51.90;;;;;;5018562;28;20090;-56
2022/07/29 10:50:03;;;;;;;0.77;0.70;;;26.10;51.90;;;;;;5031555;28;20040;-55
2022/07/29 10:53:02;;;;;;;0.85;0.75;;;26.10;51.70;;;;;;5028889;28;20033;-56
2022/07/29 10:55:36;;;;;;;1.08;0.90;;;26.10;51.40;;;;;;4994166;28;20036;-55
2022/07/29 10:58:23;;;;;;;1.65;1.55;;;26.10;51.50;;;;;;5030907;28;20067;-55
2022/07/29 11:00:52;;;;;;;1.60;1.50;;;26.00;51.70;;;;;;5023140;28;20090;-56
2022/07/29 11:03:40;;;;;;;1.88;1.58;;;26.00;51.70;;;;;;5029092;28;20024;-56
2022/07/29 11:06:06;;;;;;;1.55;1.15;;;26.00;51.50;;;;;;5020827;28;20041;-55
2022/07/29 11:08:32;;;;;;;0.98;0.95;;;26.00;51.60;;;;;;5022980;28;20039;-54
2022/07/29 11:11:27;;;;;;;1.30;1.20;;;26.00;51.50;;;;;;5027267;28;20029;-56
2022/07/29 11:13:54;;;;;;;0.95;0.95;;;26.00;51.00;;;;;;5026030;28;20088;-56
2022/07/29 11:16:25;;;;;;;1.40;1.30;;;26.00;51.70;;;;;;5033713;28;20040;-55
2022/07/29 11:19:12;;;;;;;1.50;1.40;;;25.90;51.50;;;;;;5030694;28;20045;-55
2022/07/29 11:21:40;;;;;;;4.28;2.63;;;25.90;51.50;;;;;;5028880;28;20032;-54
2022/07/29 11:24:23;;;;;;;2.38;2.03;;;25.90;51.70;;;;;;5021734;28;20043;-56
2022/07/29 11:27:12;;;;;;;2.97;1.80;;;25.90;51.70;;;;;;5026689;28;21743;-56
2022/07/29 11:29:55;;;;;;;1.80;1.25;;;25.90;51.80;;;;;;5023641;28;20073;-56
2022/07/29 11:32:23;;;;;;;1.10;1.10;;;25.90;51.50;;;;;;5021461;28;20021;-56
2022/07/29 11:35:09;;;;;;;1.40;1.30;;;25.80;51.70;;;;;;5025361;28;20028;-56
2022/07/29 11:37:35;;;;;;;1.50;1.40;;;25.90;51.90;;;;;;5028958;28;20697;-56
2022/07/29 11:40:04;;;;;;;1.05;1.02;;;25.80;51.80;;;;;;5025821;28;20029;-57
2022/07/29 11:42:34;;;;;;;1.70;1.30;;;25.80;51.60;;;;;;5014304;28;20598;-57
2022/07/29 11:45:05;;;;;;;0.75;0.75;;;25.80;51.70;;;;;;5014615;28;20060;-56
2022/07/29 11:47:31;;;;;;;1.15;1.15;;;25.80;51.80;;;;;;5024128;28;20111;-57
2022/07/29 11:49:58;;;;;;;1.08;1.05;;;25.80;51.90;;;;;;5016938;28;20040;-56
2022/07/29 11:52:33;;;;;;;1.52;1.35;;;25.80;52.00;;;;;;5013031;28;20581;-55
2022/07/29 11:55:03;;;;;;;4.97;1.70;;;25.80;52.80;;;;;;5018186;28;20628;-55
2022/07/29 11:57:29;;;;;;;1.98;1.85;;;25.80;52.00;;;;;;5024482;28;20040;-56
2022/07/29 11:59:57;;;;;;;2.63;2.42;;;25.90;52.20;;;;;;5017931;28;20033;-56
2022/07/29 12:02:23;;;;;;;2.47;2.28;;;25.90;52.30;;;;;;5013862;28;20029;-55
2022/07/29 12:04:49;;;;;;;2.67;2.20;;;25.90;52.30;;;;;;5013644;28;20846;-53
2022/07/29 12:07:16;;;;;;;4.93;3.58;;;25.80;52.20;;;;;;5026319;28;20033;-55
2022/07/29 12:09:51;;;;;;;3.10;2.63;;;25.80;52.40;;;;;;5020627;28;20033;-53
2022/07/29 12:12:17;;;;;;;3.65;2.63;;;25.80;52.60;;;;;;5016483;28;20372;-56
2022/07/29 12:14:46;;;;;;;4.43;2.63;;;25.80;52.60;;;;;;5018064;28;20130;-55
2022/07/29 12:17:26;;;;;;;2.58;2.10;;;25.80;52.40;;;;;;5018632;28;20041;-55
2022/07/29 12:19:53;;;;;;;3.10;2.17;;;25.90;52.40;;;;;;5028869;28;20032;-56
2022/07/29 12:22:27;;;;;;;2.25;2.05;;;25.80;52.60;;;;;;5028712;28;20490;-55
2022/07/29 12:24:54;;;;;;;2.05;1.90;;;25.80;52.60;;;;;;5028773;28;20029;-56
2022/07/29 12:27:19;;;;;;;3.83;2.53;;;25.80;52.70;;;;;;5035120;28;20055;-55
2022/07/29 12:29:56;;;;;;;2.17;2.05;;;25.90;52.60;;;;;;5007950;28;20749;-56
2022/07/29 12:32:22;;;;;;;3.25;2.35;;;25.80;52.40;;;;;;5026637;28;20078;-59
2022/07/29 12:34:47;;;;;;;2.70;2.30;;;25.80;52.40;;;;;;5024019;28;20024;-60
2022/07/29 12:37:13;;;;;;;2.83;2.30;;;25.80;52.50;;;;;;5029360;28;20029;-54
2022/07/29 12:39:39;;;;;;;2.38;2.10;;;25.90;52.70;;;;;;5025385;28;20028;-54
2022/07/29 12:42:13;;;;;;;2.58;2.00;;;25.90;52.60;;;;;;5021113;28;20631;-56
2022/07/29 12:44:46;;;;;;;2.55;2.00;;;25.80;52.40;;;;;;5029131;28;20029;-55
2022/07/29 12:47:12;;;;;;;1.65;1.55;;;25.90;52.40;;;;;;5030577;28;20028;-53
2022/07/29 12:49:37;;;;;;;1.70;1.52;;;25.90;52.50;;;;;;5035766;28;20423;-53
2022/07/29 12:52:27;;;;;;;1.83;1.63;;;25.90;52.50;;;;;;5033011;28;20028;-55
2022/07/29 12:54:58;;;;;;;1.77;1.67;;;25.90;52.60;;;;;;5028286;28;20032;-55
2022/07/29 12:57:24;;;;;;;3.50;1.92;;;26.00;52.80;;;;;;5023292;28;20476;-54
2022/07/29 13:00:12;;;;;;;2.45;2.25;;;25.90;52.90;;;;;;5020425;28;20111;-55
2022/07/29 13:02:39;;;;;;;2.28;2.10;;;26.00;53.00;;;;;;5017237;28;21444;-55
2022/07/29 13:05:07;;;;;;;2.53;2.30;;;26.00;53.10;;;;;;5027817;28;20029;-54